KLIT/LIT METAR and TAF weather

Enter ICAO airport designator
Station Type Date Time Source
KLIT METAR 2020/11/25 22:35 UTC NOAA

KLIT 252235Z 26010KT 10SM BKN028 10/04 A3002 RMK AO2 BKN028 V SCT T01000044 $


Station Type Date Time Source
KLIT Decoded METAR 2020/11/25 22:35 UTC NOAA

LITTLE ROCK ADAMS FIELD, AR, United States (KLIT) 34-44N 92-14W 79M
Nov 25, 2020 - 05:35 PM EST / 2020.11.25 2235 UTC
Wind: from the W (260 degrees) at 12 MPH (10 KT):0
Visibility: 10 mile(s):0
Sky conditions: mostly cloudy
Temperature: 50.0 F (10.0 C)
Dew Point: 39.9 F (4.4 C)
Relative Humidity: 68%
Pressure (altimeter): 30.02 in. Hg (1016 hPa)
ob: KLIT 252235Z 26010KT 10SM BKN028 10/04 A3002 RMK AO2 BKN028 V SCT T01000044
cycle: 22

Station Type Date Time Source
KLIT TAF 2020/11/25 20:45 UTC NOAA

TAF
AMD KLIT 251943Z 2520/2618 27010G18KT P6SM BKN030
FM260000 VRB04KT P6SM SKC
TEMPO 2610/2614 1SM BR SCT002

Example: see airport list